Time;durP1;ratioP1;P1;durP2;ratioP2;P2;SDS_P1;SDS_P2;PMS_P1;PMS_P2;Temp;Humidity;BMP_temperature;BMP_pressure;BME280_temperature;BME280_humidity;BME280_pressure;Samples;Min_cycle;Max_cycle;Signal;HPM_P1;HPM_P2
2021/07/07 05:00:35;;;;;;;7.68;5.18;;;;;;;23.05;68.94;94823.34;6033090;22;20031;-75
2021/07/07 05:03:01;;;;;;;6.45;5.35;;;;;;;24.59;64.06;94810.53;4995837;28;20046;-76
2021/07/07 05:05:26;;;;;;;6.78;5.43;;;;;;;25.00;62.51;94815.94;4991478;28;20085;-75
2021/07/07 05:07:52;;;;;;;8.85;5.53;;;;;;;24.59;64.13;94810.53;4991681;28;20026;-75
2021/07/07 05:10:17;;;;;;;7.03;5.70;;;;;;;25.27;59.02;94818.34;4992011;28;20026;-75
2021/07/07 05:12:43;;;;;;;6.82;5.97;;;;;;;26.07;57.85;94820.91;4990673;28;20026;-76
2021/07/07 05:15:09;;;;;;;8.77;6.15;;;;;;;26.69;56.35;94825.75;4992131;28;20069;-76
2021/07/07 05:17:35;;;;;;;6.85;6.18;;;;;;;27.29;53.52;94831.78;4990675;28;20034;-76
2021/07/07 05:20:00;;;;;;;7.72;6.03;;;;;;;29.64;48.32;94815.13;4992320;28;20034;-76
2021/07/07 05:22:26;;;;;;;6.00;5.60;;;;;;;30.38;46.63;94831.16;4991186;28;20924;-76
2021/07/07 05:24:52;;;;;;;5.50;5.03;;;;;;;30.42;46.70;94824.16;5005276;28;20025;-74
2021/07/07 05:27:17;;;;;;;5.95;5.32;;;;;;;28.95;49.17;94825.78;5011591;28;20030;-76
2021/07/07 05:29:43;;;;;;;8.73;5.72;;;;;;;31.91;44.90;94830.97;5010242;28;20022;-77
2021/07/07 05:32:09;;;;;;;5.40;5.10;;;;;;;31.50;44.95;94831.19;5011113;28;20026;-75
2021/07/07 05:34:35;;;;;;;5.68;5.13;;;;;;;31.32;45.00;94834.81;5009815;28;20018;-75
2021/07/07 05:37:01;;;;;;;6.53;5.07;;;;;;;31.18;45.62;94836.72;5011517;28;20109;-75
2021/07/07 05:39:27;;;;;;;5.95;5.60;;;;;;;30.88;46.47;94842.75;5009886;28;20076;-74
2021/07/07 05:41:53;;;;;;;6.43;6.03;;;;;;;29.42;47.97;94840.84;5010899;28;20025;-75
2021/07/07 05:44:18;;;;;;;5.75;5.25;;;;;;;32.08;43.94;94841.81;5010383;28;20033;-74
2021/07/07 05:46:44;;;;;;;6.90;6.50;;;;;;;32.00;44.04;94845.22;5010164;28;20026;-74
2021/07/07 05:49:11;;;;;;;7.93;6.68;;;;;;;30.60;45.84;94845.44;5011444;28;20026;-76
2021/07/07 05:51:36;;;;;;;7.18;6.68;;;;;;;31.84;43.60;94846.69;5008515;28;20414;-76
2021/07/07 05:54:02;;;;;;;6.93;6.43;;;;;;;33.54;41.58;94839.47;5010369;28;20022;-76
2021/07/07 05:56:28;;;;;;;6.78;6.38;;;;;;;33.17;41.13;94848.19;5009570;28;20033;-77
2021/07/07 05:58:53;;;;;;;6.88;6.38;;;;;;;31.94;43.02;94845.66;5010710;28;20022;-76
2021/07/07 06:01:19;;;;;;;10.27;6.70;;;;;;;32.01;41.61;94849.47;5009721;28;20100;-77
2021/07/07 06:03:44;;;;;;;6.88;6.10;;;;;;;34.52;38.00;94854.78;5010363;28;20034;-76
2021/07/07 06:06:09;;;;;;;6.45;5.80;;;;;;;33.13;39.17;94852.59;5011218;28;20038;-76
2021/07/07 06:08:35;;;;;;;6.28;5.78;;;;;;;33.97;38.22;94849.38;5008813;28;20034;-76
2021/07/07 06:11:00;;;;;;;6.18;5.78;;;;;;;32.09;41.10;94862.16;5010661;28;20022;-74
2021/07/07 06:13:26;;;;;;;5.85;5.43;;;;;;;33.96;38.35;94855.88;5008644;28;20493;-76
2021/07/07 06:15:51;;;;;;;6.32;5.93;;;;;;;34.62;37.03;94860.59;5010799;28;20029;-77
2021/07/07 06:18:17;;;;;;;10.52;5.88;;;;;;;32.28;40.76;94856.56;5009004;28;20336;-76
2021/07/07 06:20:42;;;;;;;5.70;5.30;;;;;;;34.72;38.69;94862.13;5010127;28;20037;-76
2021/07/07 06:23:08;;;;;;;5.45;5.10;;;;;;;35.89;35.54;94856.53;5010243;28;20030;-77
2021/07/07 06:25:33;;;;;;;5.95;5.55;;;;;;;35.21;35.12;94868.66;5009338;28;20463;-77
2021/07/07 06:28:00;;;;;;;5.90;5.43;;;;;;;34.91;38.12;94857.88;5010819;28;20044;-75
2021/07/07 06:30:26;;;;;;;5.47;5.07;;;;;;;35.86;36.69;94866.09;5008446;28;20022;-76
2021/07/07 06:32:52;;;;;;;7.40;6.75;;;;;;;33.86;38.06;94854.31;5009360;28;20816;-75
2021/07/07 06:35:18;;;;;;;7.47;6.05;;;;;;;31.73;40.67;94861.44;5009080;28;20113;-79
2021/07/07 06:37:44;;;;;;;6.70;6.00;;;;;;;32.77;40.59;94853.59;5010152;28;20018;-76
2021/07/07 06:40:10;;;;;;;6.57;6.07;;;;;;;35.09;36.95;94858.59;5008284;28;20029;-77
2021/07/07 06:42:36;;;;;;;7.28;6.68;;;;;;;31.42;41.83;94861.34;5008978;28;20607;-77
2021/07/07 06:45:03;;;;;;;7.22;6.72;;;;;;;28.42;48.52;94849.91;5009968;28;20030;-78
2021/07/07 06:47:28;;;;;;;6.20;5.70;;;;;;;29.55;47.98;94858.81;5007260;28;20026;-76
2021/07/07 06:49:54;;;;;;;6.22;5.57;;;;;;;29.89;47.23;94861.22;5009956;28;20481;-77
2021/07/07 06:52:19;;;;;;;5.43;5.03;;;;;;;29.91;45.91;94862.50;5008717;28;20026;-77
2021/07/07 06:54:46;;;;;;;5.88;5.28;;;;;;;29.68;48.21;94858.06;5009752;28;20469;-75
2021/07/07 06:57:12;;;;;;;6.13;5.60;;;;;;;32.19;42.80;94859.22;5008740;28;20036;-74
2021/07/07 06:59:37;;;;;;;6.90;5.60;;;;;;;35.55;35.92;94863.00;5009482;28;20431;-77
2021/07/07 07:02:04;;;;;;;5.43;5.13;;;;;;;35.21;35.46;94863.28;5009021;28;20427;-77
2021/07/07 07:04:30;;;;;;;5.68;5.28;;;;;;;35.78;34.90;94823.78;5007457;28;20022;-75
2021/07/07 07:06:57;;;;;;;5.57;5.18;;;;;;;37.09;32.75;94854.34;5009868;28;20018;-77
2021/07/07 07:09:23;;;;;;;5.38;4.93;;;;;;;32.12;40.70;94861.53;5007061;28;20080;-77
2021/07/07 07:11:48;;;;;;;6.28;5.82;;;;;;;30.49;46.30;94860.13;5009135;28;20026;-76
2021/07/07 07:14:13;;;;;;;6.10;5.63;;;;;;;29.20;47.79;94857.44;5008198;28;20033;-77
2021/07/07 07:16:39;;;;;;;6.22;5.13;;;;;;;28.82;47.88;94861.19;5364982;23;20065;-76
2021/07/07 07:19:04;;;;;;;6.07;5.40;;;;;;;29.18;48.81;94852.41;5015259;28;20038;-76
2021/07/07 07:21:30;;;;;;;6.50;5.90;;;;;;;28.55;50.01;94851.88;5028350;28;20033;-76
2021/07/07 07:23:55;;;;;;;6.55;5.25;;;;;;;29.08;51.54;94862.44;5028746;28;20044;-76
2021/07/07 07:26:22;;;;;;;6.47;5.88;;;;;;;30.06;50.68;94858.75;5028402;28;20414;-75
2021/07/07 07:28:47;;;;;;;6.43;5.85;;;;;;;29.67;50.32;94851.13;5011278;28;20079;-76
2021/07/07 07:31:13;;;;;;;5.88;5.38;;;;;;;28.85;48.86;94842.72;5011735;28;20025;-76
2021/07/07 07:33:38;;;;;;;6.63;6.03;;;;;;;28.89;51.20;94858.97;5011545;28;20026;-76
2021/07/07 07:36:04;;;;;;;6.35;5.90;;;;;;;29.04;52.77;94861.41;5027712;28;20087;-76
2021/07/07 07:38:32;;;;;;;6.22;5.63;;;;;;;27.90;54.15;94860.56;5011994;28;20084;-76
2021/07/07 07:40:58;;;;;;;5.97;5.57;;;;;;;29.15;50.19;94852.19;5011223;28;20034;-76
2021/07/07 07:43:23;;;;;;;6.43;6.03;;;;;;;29.66;49.13;94854.91;5029961;28;20040;-76
2021/07/07 07:45:54;;;;;;;6.30;5.90;;;;;;;29.77;50.97;94861.63;5026985;28;20025;-76
2021/07/07 07:48:20;;;;;;;6.07;5.68;;;;;;;27.75;53.78;94861.50;5029386;28;20025;-79
2021/07/07 07:50:45;;;;;;;7.43;5.55;;;;;;;29.11;51.71;94853.84;5011149;28;20029;-76
2021/07/07 07:53:11;;;;;;;7.15;6.43;;;;;;;29.48;48.64;94861.84;5027911;28;20037;-76
2021/07/07 07:55:36;;;;;;;6.80;6.30;;;;;;;28.86;49.88;94870.22;5011402;28;20501;-77
2021/07/07 07:58:03;;;;;;;6.88;6.32;;;;;;;28.62;51.80;94844.34;5027274;28;20037;-77
2021/07/07 08:00:28;;;;;;;6.45;5.90;;;;;;;29.52;50.82;94864.72;5011532;28;20025;-80
2021/07/07 08:02:55;;;;;;;7.28;6.78;;;;;;;28.93;50.54;94859.97;5026886;28;20033;-76
2021/07/07 08:05:20;;;;;;;7.70;6.65;;;;;;;29.22;50.69;94860.59;5011777;28;20040;-80
2021/07/07 08:07:46;;;;;;;7.05;6.05;;;;;;;30.31;48.71;94852.97;5010086;28;20033;-82
2021/07/07 08:10:13;;;;;;;6.68;6.15;;;;;;;29.89;49.43;94861.22;5011353;28;20033;-76
2021/07/07 08:12:39;;;;;;;6.30;5.88;;;;;;;30.08;51.01;94861.94;5011173;28;20036;-76
2021/07/07 08:15:05;;;;;;;8.25;5.68;;;;;;;30.56;47.49;94855.19;5026967;28;20045;-76
2021/07/07 08:17:31;;;;;;;6.20;5.70;;;;;;;29.93;47.09;94856.84;5010611;28;20084;-77
2021/07/07 08:19:56;;;;;;;7.95;5.50;;;;;;;29.78;48.63;94861.38;5025534;28;20030;-77
2021/07/07 08:22:22;;;;;;;5.72;5.30;;;;;;;28.97;50.43;94860.97;5026711;28;20411;-80
2021/07/07 08:24:47;;;;;;;6.30;5.78;;;;;;;29.43;50.40;94859.28;4988607;28;20041;-76
2021/07/07 08:27:13;;;;;;;7.32;5.38;;;;;;;29.95;48.18;94855.50;5006690;28;20068;-77
2021/07/07 08:29:38;;;;;;;5.43;5.03;;;;;;;30.17;48.47;94855.63;5005657;28;20871;-76
2021/07/07 08:32:05;;;;;;;6.15;5.07;;;;;;;30.89;47.79;94860.41;5006714;28;20026;-77
2021/07/07 08:34:31;;;;;;;6.47;5.47;;;;;;;28.95;49.25;94853.28;4990607;28;20088;-78
2021/07/07 08:36:57;;;;;;;5.63;5.22;;;;;;;30.22;48.66;94850.19;4989469;28;20038;-80
2021/07/07 08:39:23;;;;;;;5.78;5.22;;;;;;;30.26;47.94;94853.84;5006673;28;20029;-77
2021/07/07 08:41:49;;;;;;;5.97;5.47;;;;;;;29.35;48.03;94846.56;5004622;28;20042;-78
2021/07/07 08:44:15;;;;;;;5.80;5.40;;;;;;;29.47;49.43;94854.94;4990541;28;20026;-78
2021/07/07 08:46:40;;;;;;;6.18;5.78;;;;;;;29.68;47.55;94848.19;5006172;28;20502;-80
2021/07/07 08:49:06;;;;;;;7.50;5.30;;;;;;;28.90;48.18;94857.88;5006879;28;20041;-78
2021/07/07 08:51:31;;;;;;;6.10;5.55;;;;;;;30.07;47.04;94858.47;5007460;28;20030;-78
2021/07/07 08:53:58;;;;;;;5.32;4.75;;;;;;;29.84;48.99;94855.94;5008263;28;20026;-78
2021/07/07 08:56:24;;;;;;;8.73;5.00;;;;;;;30.65;49.19;94865.97;5006400;28;20030;-78
2021/07/07 08:58:51;;;;;;;6.78;5.40;;;;;;;30.77;48.51;94861.69;4989076;28;20025;-77
2021/07/07 09:01:16;;;;;;;5.75;5.30;;;;;;;30.23;48.39;94862.47;5006611;28;20034;-80
2021/07/07 09:03:43;;;;;;;5.82;5.25;;;;;;;30.66;45.99;94860.31;5005432;28;20091;-77
2021/07/07 09:06:08;;;;;;;5.38;4.97;;;;;;;29.75;48.53;94845.91;4974059;28;20088;-77
2021/07/07 09:08:35;;;;;;;6.43;4.93;;;;;;;30.04;47.35;94859.06;4988289;28;20034;-80
2021/07/07 09:11:23;;;;;;;5.78;5.28;;;;;;;29.39;49.18;94852.91;4989557;28;20038;-78
2021/07/07 09:13:51;;;;;;;5.57;5.18;;;;;;;29.72;50.06;94851.84;5004446;28;20029;-79
2021/07/07 09:16:18;;;;;;;7.53;5.60;;;;;;;30.75;46.45;94855.84;5004155;28;20507;-78
2021/07/07 09:18:43;;;;;;;5.32;4.82;;;;;;;30.48;45.24;94855.84;4989282;28;20054;-77
2021/07/07 09:21:29;;;;;;;5.55;5.03;;;;;;;29.95;46.67;94852.03;4976606;28;20042;-77
2021/07/07 09:23:55;;;;;;;7.57;4.72;;;;;;;29.89;47.82;94851.34;5006748;28;20109;-77
2021/07/07 09:26:31;;;;;;;5.53;4.78;;;;;;;29.58;48.55;94856.34;5005806;28;20022;-78
2021/07/07 09:28:56;;;;;;;5.40;4.95;;;;;;;29.31;47.95;94855.47;4991903;28;20026;-77
2021/07/07 09:31:38;;;;;;;4.93;4.40;;;;;;;30.15;46.85;94849.00;5010028;28;20033;-77
2021/07/07 09:34:18;;;;;;;5.68;5.28;;;;;;;29.88;47.19;94846.28;5008577;28;20026;-78
2021/07/07 09:36:46;;;;;;;5.18;4.78;;;;;;;30.06;46.58;94835.50;4994291;28;20029;-77
2021/07/07 09:39:12;;;;;;;5.75;5.25;;;;;;;30.12;46.97;94850.34;4991743;28;20022;-77
2021/07/07 09:41:39;;;;;;;4.75;4.47;;;;;;;30.22;47.67;94841.34;5005572;28;20495;-78
2021/07/07 09:44:06;;;;;;;5.85;5.32;;;;;;;30.15;47.78;94849.75;4988562;28;20030;-79
2021/07/07 09:46:31;;;;;;;7.00;4.95;;;;;;;30.47;48.07;94845.47;4988885;28;20068;-78
2021/07/07 09:48:57;;;;;;;5.78;5.00;;;;;;;30.17;47.86;94841.47;4975520;28;20053;-78
2021/07/07 09:51:22;;;;;;;5.75;5.35;;;;;;;30.27;46.56;94846.63;5006000;28;20010;-77
2021/07/07 09:53:48;;;;;;;5.50;5.10;;;;;;;30.67;47.57;94848.50;5007656;28;20033;-78
2021/07/07 09:56:13;;;;;;;5.63;5.05;;;;;;;30.21;45.92;94848.56;5006997;28;20034;-78
2021/07/07 09:58:39;;;;;;;5.70;4.65;;;;;;;29.80;45.86;94845.81;5009373;28;20022;-79
2021/07/07 10:01:04;;;;;;;5.57;5.10;;;;;;;29.88;48.61;94846.28;4992400;28;20045;-79
2021/07/07 10:03:31;;;;;;;5.25;4.68;;;;;;;30.25;48.22;94833.53;4991365;28;20022;-79
2021/07/07 10:05:56;;;;;;;5.30;4.90;;;;;;;30.07;46.77;94841.66;4975241;28;20033;-78
2021/07/07 10:08:22;;;;;;;5.68;5.13;;;;;;;30.27;46.55;94841.28;4990384;28;20505;-79
2021/07/07 10:10:47;;;;;;;5.22;4.80;;;;;;;30.37;46.55;94843.75;4992378;28;20018;-81
2021/07/07 10:13:13;;;;;;;5.18;4.78;;;;;;;30.49;44.84;94833.38;4987962;28;20479;-79
2021/07/07 10:15:39;;;;;;;5.75;4.50;;;;;;;30.60;46.68;94842.78;5008540;28;20032;-79
2021/07/07 10:18:05;;;;;;;5.47;4.50;;;;;;;30.46;45.53;94828.63;4990540;28;20546;-79
2021/07/07 10:20:31;;;;;;;5.45;5.00;;;;;;;30.57;45.84;94835.34;5005905;28;20172;-77
2021/07/07 10:22:56;;;;;;;4.57;4.28;;;;;;;31.41;45.95;94837.53;4998086;28;20110;-79
2021/07/07 10:25:26;;;;;;;5.40;4.93;;;;;;;31.68;44.13;94832.91;4957688;28;20525;-78
2021/07/07 10:27:53;;;;;;;4.75;4.45;;;;;;;31.04;46.36;94834.13;5001290;28;20026;-79
2021/07/07 10:30:20;;;;;;;4.60;4.30;;;;;;;30.79;45.32;94842.66;4972072;28;20064;-78
2021/07/07 10:33:05;;;;;;;4.53;4.22;;;;;;;29.94;44.47;94837.06;5005625;28;20037;-77
2021/07/07 10:35:31;;;;;;;5.00;4.70;;;;;;;30.10;44.43;94833.03;4990766;28;20534;-79
2021/07/07 10:37:56;;;;;;;5.15;4.75;;;;;;;31.28;47.17;94836.50;4973275;28;20030;-78
2021/07/07 10:40:24;;;;;;;4.80;4.50;;;;;;;31.22;44.64;94829.69;5006164;28;20119;-83
2021/07/07 10:42:49;;;;;;;4.97;4.68;;;;;;;30.38;45.07;94841.84;5003679;28;20495;-78
2021/07/07 10:45:41;;;;;;;4.70;4.40;;;;;;;29.76;46.03;94826.13;4988217;28;20041;-78
2021/07/07 10:48:32;;;;;;;5.93;4.55;;;;;;;29.30;48.60;94827.97;5021148;28;20132;-77
2021/07/07 10:51:21;;;;;;;5.03;4.63;;;;;;;30.18;45.25;94841.16;5004924;28;20040;-77
2021/07/07 10:53:47;;;;;;;7.03;4.50;;;;;;;30.57;44.94;94832.66;5004663;28;20034;-76
2021/07/07 10:56:13;;;;;;;7.00;4.40;;;;;;;30.47;44.11;94834.78;5005765;28;20029;-78
2021/07/07 10:58:39;;;;;;;4.57;4.28;;;;;;;30.63;44.67;94817.31;5006340;28;20037;-78
2021/07/07 11:01:34;;;;;;;5.38;4.88;;;;;;;30.37;44.74;94835.75;4989437;28;20444;-78
2021/07/07 11:04:03;;;;;;;5.78;4.68;;;;;;;30.28;43.51;94832.16;4990785;28;20036;-77
2021/07/07 11:06:31;;;;;;;4.65;4.25;;;;;;;31.17;43.67;94827.94;4990268;28;20056;-78
2021/07/07 11:09:12;;;;;;;5.80;4.30;;;;;;;30.79;43.99;94826.63;4989641;28;20482;-79
2021/07/07 11:11:37;;;;;;;4.75;4.45;;;;;;;30.60;45.89;94821.38;5006178;28;20032;-79
2021/07/07 11:14:29;;;;;;;5.00;4.60;;;;;;;31.30;45.06;94820.94;4990087;28;20026;-80
2021/07/07 11:16:56;;;;;;;7.60;5.20;;;;;;;30.73;45.14;94828.59;5001633;28;20475;-78
2021/07/07 11:19:49;;;;;;;4.93;4.43;;;;;;;31.06;45.38;94823.88;5007002;28;20061;-78
2021/07/07 11:22:16;;;;;;;4.60;4.20;;;;;;;30.69;44.89;94816.13;4998696;28;20079;-80
2021/07/07 11:24:46;;;;;;;4.60;4.20;;;;;;;31.12;43.36;94817.31;4984697;28;20406;-77
2021/07/07 11:27:11;;;;;;;4.72;4.32;;;;;;;31.18;44.80;94817.97;4989581;28;20092;-79
2021/07/07 11:29:37;;;;;;;5.57;5.13;;;;;;;30.72;46.40;94819.00;5005504;28;20030;-77
2021/07/07 11:32:20;;;;;;;4.93;4.53;;;;;;;30.03;46.64;94819.25;4990395;28;20022;-78
2021/07/07 11:34:50;;;;;;;4.78;4.47;;;;;;;30.65;45.61;94813.25;5006143;28;20021;-77
2021/07/07 11:37:15;;;;;;;4.68;4.38;;;;;;;31.10;45.54;94808.00;5005916;28;20033;-77
2021/07/07 11:39:41;;;;;;;5.40;4.75;;;;;;;30.90;44.21;94816.47;4988997;28;20030;-77
2021/07/07 11:42:07;;;;;;;4.55;4.25;;;;;;;31.21;44.54;94814.72;4989517;28;20080;-78
2021/07/07 11:44:58;;;;;;;4.75;4.35;;;;;;;30.23;45.90;94810.88;5007531;28;20030;-78
2021/07/07 11:47:30;;;;;;;5.18;4.78;;;;;;;29.90;47.26;94809.34;5002245;28;20034;-76
2021/07/07 11:50:08;;;;;;;5.05;4.75;;;;;;;29.45;46.27;94816.25;4989574;28;20515;-76
2021/07/07 11:52:34;;;;;;;5.97;4.28;;;;;;;29.31;46.99;94813.53;4988467;28;20026;-76
2021/07/07 11:55:00;;;;;;;4.55;4.22;;;;;;;29.54;46.61;94807.28;4989181;28;20041;-76
2021/07/07 11:57:28;;;;;;;5.22;4.40;;;;;;;29.75;45.83;94797.84;5005760;28;20131;-77
2021/07/07 11:59:54;;;;;;;4.80;4.43;;;;;;;29.89;44.93;94805.13;4988609;28;20029;-76
2021/07/07 12:02:20;;;;;;;5.13;4.75;;;;;;;30.63;45.71;94806.63;4973685;28;20381;-76
2021/07/07 12:04:46;;;;;;;4.82;4.50;;;;;;;30.99;45.60;94809.31;4988163;28;20053;-77
2021/07/07 12:07:12;;;;;;;4.75;4.45;;;;;;;30.44;44.67;94805.94;4989000;28;20381;-77
2021/07/07 12:09:38;;;;;;;4.63;4.32;;;;;;;30.05;44.81;94807.22;4988730;28;20040;-76
2021/07/07 12:12:05;;;;;;;5.15;4.75;;;;;;;30.42;44.83;94805.44;5006533;28;20022;-77
2021/07/07 12:14:34;;;;;;;4.63;4.32;;;;;;;30.42;43.95;94798.22;5005491;28;20507;-76
2021/07/07 12:17:00;;;;;;;4.75;4.28;;;;;;;30.73;43.82;94814.41;4988668;28;20033;-76
2021/07/07 12:19:26;;;;;;;4.50;4.10;;;;;;;30.61;45.23;94801.56;5006101;28;20030;-77
2021/07/07 12:21:56;;;;;;;4.97;4.20;;;;;;;30.37;44.03;94800.97;4987760;28;20056;-79
2021/07/07 12:24:22;;;;;;;4.15;3.85;;;;;;;29.59;47.00;94804.53;5005816;28;20562;-76
2021/07/07 12:26:52;;;;;;;5.65;4.15;;;;;;;29.49;47.44;94807.38;4988209;28;20025;-76
2021/07/07 12:29:22;;;;;;;4.60;4.18;;;;;;;30.56;46.18;94804.34;5005738;28;20029;-76
2021/07/07 12:31:48;;;;;;;5.45;4.78;;;;;;;30.78;45.05;94812.44;4989170;28;20576;-78
2021/07/07 12:34:16;;;;;;;5.90;4.35;;;;;;;30.59;44.59;94803.75;5004824;28;20030;-77
2021/07/07 12:36:42;;;;;;;4.05;3.65;;;;;;;30.59;42.73;94797.59;4989290;28;20454;-77
2021/07/07 12:39:21;;;;;;;5.10;4.07;;;;;;;30.72;43.37;94820.88;4988244;28;20109;-79
2021/07/07 12:42:15;;;;;;;;;;;;;;;31.04;42.84;94803.88;4974973;28;20038;-76
2021/07/07 12:44:41;;;;;;;4.45;4.07;;;;;;;30.54;42.17;94787.00;5006233;28;19913;-79
2021/07/07 12:47:17;;;;;;;5.05;4.63;;;;;;;30.60;42.82;94802.63;4971585;28;20037;-77
2021/07/07 12:49:43;;;;;;;4.45;4.10;;;;;;;31.25;45.57;94813.81;4988642;28;20022;-77
2021/07/07 12:52:16;;;;;;;4.55;4.13;;;;;;;31.02;42.48;94816.78;5003465;28;20084;-77
2021/07/07 12:54:41;;;;;;;4.22;3.65;;;;;;;30.75;43.04;94818.38;5005545;28;20018;-75
2021/07/07 12:57:07;;;;;;;4.65;4.35;;;;;;;30.88;43.88;94813.31;5003911;28;20076;-75
2021/07/07 12:59:32;;;;;;;4.63;3.95;;;;;;;31.16;43.62;94820.19;4988548;28;20377;-76
2021/07/07 13:02:04;;;;;;;6.30;4.00;;;;;;;30.84;41.73;94819.25;5005403;28;20026;-75
2021/07/07 13:04:30;;;;;;;4.45;4.15;;;;;;;30.73;42.83;94823.22;5007955;28;20030;-75
2021/07/07 13:07:09;;;;;;;4.22;3.92;;;;;;;31.01;43.84;94823.22;4992471;28;20426;-75
2021/07/07 13:09:35;;;;;;;4.57;4.18;;;;;;;30.79;44.05;94815.91;4991567;28;20068;-78
2021/07/07 13:12:05;;;;;;;4.43;3.88;;;;;;;31.16;43.69;94815.63;5008319;28;20399;-76
2021/07/07 13:14:30;;;;;;;3.83;3.53;;;;;;;30.81;41.65;94813.72;4992300;28;20033;-75
2021/07/07 13:16:56;;;;;;;3.95;3.75;;;;;;;30.76;43.78;94822.63;5008113;28;20038;-76
2021/07/07 13:19:28;;;;;;;5.93;4.25;;;;;;;30.71;44.06;94827.31;5009143;28;20018;-75
2021/07/07 13:21:57;;;;;;;4.90;4.53;;;;;;;30.78;43.28;94820.47;5023974;28;20036;-77
2021/07/07 13:24:30;;;;;;;4.45;4.15;;;;;;;30.63;44.00;94817.31;5010382;28;20045;-76
2021/07/07 13:26:55;;;;;;;4.80;3.97;;;;;;;30.97;45.14;94822.22;5007318;28;20026;-75
2021/07/07 13:29:33;;;;;;;4.50;4.20;;;;;;;30.67;44.20;94819.09;5008150;28;20733;-75
2021/07/07 13:32:07;;;;;;;4.28;3.97;;;;;;;31.20;44.98;94819.28;5005216;28;20492;-76
2021/07/07 13:34:40;;;;;;;4.57;4.28;;;;;;;30.74;44.67;94816.81;5007359;28;20048;-78
2021/07/07 13:37:10;;;;;;;4.38;4.07;;;;;;;30.73;45.29;94811.72;5006170;28;20030;-75
2021/07/07 13:39:36;;;;;;;4.65;4.15;;;;;;;30.67;43.16;94820.97;4974883;28;20117;-75
2021/07/07 13:42:01;;;;;;;4.25;3.92;;;;;;;30.60;42.99;94810.66;5008421;28;20026;-78
2021/07/07 13:44:27;;;;;;;4.07;3.83;;;;;;;30.59;43.29;94822.47;5007455;28;20415;-76
2021/07/07 13:46:52;;;;;;;4.80;3.90;;;;;;;30.50;43.74;94818.13;4991980;28;20040;-75
2021/07/07 13:49:17;;;;;;;4.43;4.13;;;;;;;30.51;44.03;94809.78;4991178;28;20440;-77
2021/07/07 13:51:43;;;;;;;4.93;4.47;;;;;;;30.65;43.02;94826.63;5007881;28;20034;-76
2021/07/07 13:54:08;;;;;;;4.60;4.20;;;;;;;30.75;43.20;94825.63;5009088;28;20022;-77
2021/07/07 13:56:34;;;;;;;4.80;4.50;;;;;;;30.67;44.38;94821.75;5008594;28;20496;-75
2021/07/07 13:58:59;;;;;;;4.95;3.85;;;;;;;30.71;45.36;94819.28;5008934;28;20029;-76
2021/07/07 14:01:26;;;;;;;5.00;4.40;;;;;;;30.81;43.44;94835.91;4990374;28;20057;-75
2021/07/07 14:03:51;;;;;;;4.07;3.67;;;;;;;30.74;44.69;94832.84;5008213;28;20049;-75
2021/07/07 14:06:17;;;;;;;5.00;4.57;;;;;;;30.62;44.23;94821.88;5006713;28;20556;-74
2021/07/07 14:08:43;;;;;;;6.90;4.28;;;;;;;30.56;46.15;94830.31;5008126;28;20022;-74
2021/07/07 14:11:08;;;;;;;4.30;4.00;;;;;;;30.66;45.89;94833.56;5006972;28;20112;-74
2021/07/07 14:13:34;;;;;;;4.55;4.25;;;;;;;30.44;45.06;94827.34;5006423;28;20466;-76
2021/07/07 14:16:00;;;;;;;4.90;4.50;;;;;;;30.37;45.12;94830.38;4991398;28;20030;-77
2021/07/07 14:18:26;;;;;;;4.60;4.20;;;;;;;30.57;45.33;94830.00;4990132;28;20199;-74
2021/07/07 14:20:52;;;;;;;4.68;4.28;;;;;;;30.56;45.72;94833.78;5007788;28;20026;-78
2021/07/07 14:23:17;;;;;;;4.60;4.30;;;;;;;30.57;44.58;94819.28;5007826;28;20088;-75
2021/07/07 14:25:43;;;;;;;4.53;4.22;;;;;;;30.45;43.61;94837.72;5007747;28;20626;-75
2021/07/07 14:28:08;;;;;;;4.22;3.92;;;;;;;30.53;44.13;94823.69;5006542;28;20029;-75
2021/07/07 14:30:34;;;;;;;4.68;4.38;;;;;;;30.52;45.49;94830.09;5007181;28;20974;-75
2021/07/07 14:33:00;;;;;;;6.05;4.22;;;;;;;30.41;45.44;94828.72;4990863;28;20038;-75
2021/07/07 14:35:25;;;;;;;4.75;4.35;;;;;;;30.37;44.72;94824.25;5006643;28;20058;-75
2021/07/07 14:37:51;;;;;;;4.45;4.15;;;;;;;30.30;44.40;94830.00;4988031;28;20037;-75
2021/07/07 14:40:16;;;;;;;4.95;4.20;;;;;;;30.49;45.78;94838.72;4969350;28;20038;-75
2021/07/07 14:42:42;;;;;;;6.65;4.20;;;;;;;30.49;44.11;94832.59;4987026;28;20136;-75
2021/07/07 14:45:08;;;;;;;5.07;4.68;;;;;;;30.27;44.18;94833.25;4994103;28;20029;-76
2021/07/07 14:47:33;;;;;;;4.10;3.70;;;;;;;30.39;44.69;94838.91;4989984;28;20060;-74
2021/07/07 14:49:59;;;;;;;4.82;4.53;;;;;;;30.38;44.42;94831.16;5006510;28;20030;-75
2021/07/07 14:52:24;;;;;;;4.53;4.22;;;;;;;30.42;45.30;94832.19;5006325;28;20518;-75
2021/07/07 14:54:50;;;;;;;4.50;4.20;;;;;;;30.46;45.38;94825.16;4990528;28;20034;-75
2021/07/07 14:57:15;;;;;;;4.55;4.15;;;;;;;30.38;45.15;94823.13;4989233;28;20101;-75
2021/07/07 14:59:44;;;;;;;4.40;4.10;;;;;;;30.31;45.90;94826.22;5007339;28;20029;-76
2021/07/07 15:02:10;;;;;;;6.07;4.38;;;;;;;30.39;44.85;94822.84;4989806;28;20034;-78
2021/07/07 15:04:35;;;;;;;3.90;3.70;;;;;;;30.30;45.61;94819.28;4990430;28;20040;-75
2021/07/07 15:07:01;;;;;;;9.10;4.32;;;;;;;30.22;46.22;94822.66;4989397;28;20112;-75
2021/07/07 15:09:26;;;;;;;4.55;4.15;;;;;;;30.13;44.92;94813.72;4989962;28;20076;-74
2021/07/07 15:11:52;;;;;;;4.80;4.38;;;;;;;30.15;45.93;94817.69;5006262;28;20030;-74
2021/07/07 15:14:17;;;;;;;3.97;3.67;;;;;;;30.13;44.08;94821.75;5005707;28;20034;-74
2021/07/07 15:16:42;;;;;;;4.38;4.07;;;;;;;30.10;45.24;94817.81;4990055;28;20030;-75
2021/07/07 15:19:08;;;;;;;4.97;4.57;;;;;;;30.06;46.86;94824.81;5006754;28;20050;-74
2021/07/07 15:21:33;;;;;;;4.40;4.03;;;;;;;30.01;46.69;94821.44;4990147;28;20510;-74
2021/07/07 15:23:59;;;;;;;4.15;3.85;;;;;;;30.00;48.41;94817.97;5007668;28;20474;-74
2021/07/07 15:26:24;;;;;;;4.53;4.00;;;;;;;29.95;46.94;94818.09;4988589;28;20029;-75
2021/07/07 15:28:52;;;;;;;4.65;4.25;;;;;;;29.87;47.58;94810.75;4989819;28;20030;-75
2021/07/07 15:31:18;;;;;;;4.00;3.70;;;;;;;29.85;47.50;94825.47;5005553;28;20104;-75
2021/07/07 15:33:44;;;;;;;4.57;4.15;;;;;;;29.76;47.91;94810.09;5006645;28;20026;-74
2021/07/07 15:36:09;;;;;;;4.03;3.83;;;;;;;29.76;47.63;94817.34;5006323;28;20099;-75
2021/07/07 15:38:35;;;;;;;4.13;3.83;;;;;;;29.65;47.71;94826.59;5006523;28;20026;-75
2021/07/07 15:41:01;;;;;;;5.32;4.90;;;;;;;29.67;48.58;94827.88;5005474;28;20036;-74
2021/07/07 15:43:26;;;;;;;4.78;4.38;;;;;;;29.59;48.35;94823.22;4990001;28;20069;-75
2021/07/07 15:45:52;;;;;;;4.78;4.07;;;;;;;29.60;48.19;94826.69;4988833;28;20029;-75
2021/07/07 15:48:18;;;;;;;4.70;4.20;;;;;;;29.58;48.75;94828.84;5005717;28;20484;-75
2021/07/07 15:50:43;;;;;;;5.28;4.88;;;;;;;29.45;48.74;94829.59;5007015;28;20026;-75
2021/07/07 15:53:09;;;;;;;5.22;4.72;;;;;;;29.50;49.64;94838.34;5005388;28;20041;-75
2021/07/07 15:55:34;;;;;;;5.15;4.57;;;;;;;29.50;49.81;94834.88;5006174;28;20057;-75
2021/07/07 15:58:00;;;;;;;4.78;4.38;;;;;;;29.55;51.07;94829.44;4988500;28;20477;-75
2021/07/07 16:00:25;;;;;;;4.72;4.30;;;;;;;29.46;49.64;94831.97;5007258;28;20026;-74
2021/07/07 16:02:51;;;;;;;4.65;4.25;;;;;;;29.34;50.12;94833.53;5004997;28;20030;-75
2021/07/07 16:05:16;;;;;;;4.97;4.68;;;;;;;29.19;49.87;94837.16;4989573;28;20041;-75
2021/07/07 16:07:42;;;;;;;5.80;5.20;;;;;;;29.25;50.69;94834.16;5004996;28;20037;-75
2021/07/07 16:10:08;;;;;;;4.85;4.30;;;;;;;29.17;49.54;94840.16;4989312;28;20653;-75
2021/07/07 16:12:34;;;;;;;5.32;4.78;;;;;;;29.11;49.63;94835.16;5005460;28;20026;-75
2021/07/07 16:14:59;;;;;;;5.55;5.15;;;;;;;28.99;49.25;94832.94;5004543;28;20037;-75
2021/07/07 16:17:27;;;;;;;5.50;5.10;;;;;;;28.98;49.75;94826.00;5007130;28;20395;-74
2021/07/07 16:19:52;;;;;;;5.13;4.63;;;;;;;28.95;51.49;94839.13;5004925;28;20167;-75
2021/07/07 16:22:17;;;;;;;4.82;4.43;;;;;;;28.90;51.42;94847.22;5007171;28;20427;-75
2021/07/07 16:24:43;;;;;;;4.90;4.50;;;;;;;28.78;51.22;94852.97;5005730;28;20442;-75
2021/07/07 16:27:08;;;;;;;5.03;4.20;;;;;;;28.75;51.69;94846.34;5006708;28;20037;-75
2021/07/07 16:29:34;;;;;;;4.65;4.32;;;;;;;28.69;51.42;94849.34;4988762;28;20029;-74
2021/07/07 16:31:59;;;;;;;4.47;4.18;;;;;;;28.59;51.69;94852.09;4988582;28;20030;-74
2021/07/07 16:34:25;;;;;;;5.30;4.80;;;;;;;28.52;52.30;94854.31;5005761;28;20057;-75